createdAt,value
2019-05-23T00:00:45.124Z,786.19
2019-05-23T00:01:45.113Z,786.26
2019-05-23T00:02:45.101Z,786.30
2019-05-23T00:03:45.086Z,786.36
2019-05-23T00:04:45.062Z,786.39
2019-05-23T00:05:45.066Z,786.47
2019-05-23T00:06:45.047Z,786.48
2019-05-23T00:07:45.067Z,786.52
2019-05-23T00:08:45.046Z,786.60
2019-05-23T00:09:45.045Z,786.67
2019-05-23T00:10:45.002Z,786.80
2019-05-23T00:11:44.983Z,786.83
2019-05-23T00:12:45.010Z,786.92
2019-05-23T00:13:44.975Z,786.96
2019-05-23T00:14:44.963Z,787.01
2019-05-23T00:15:44.946Z,787.04
2019-05-23T00:16:44.932Z,787.05
2019-05-23T00:17:44.953Z,787.11
2019-05-23T00:18:44.930Z,787.13
2019-05-23T00:19:44.904Z,787.22
2019-05-23T00:20:44.915Z,787.30
2019-05-23T00:21:44.906Z,787.34
2019-05-23T00:22:44.875Z,787.37
2019-05-23T00:23:44.865Z,787.36
2019-05-23T00:24:44.843Z,787.33
2019-05-23T00:25:44.846Z,787.36
2019-05-23T00:26:45.503Z,787.37
2019-05-23T00:27:44.831Z,787.36
2019-05-23T00:28:44.799Z,787.35
2019-05-23T00:29:44.783Z,787.38
2019-05-23T00:30:44.808Z,787.35
2019-05-23T00:31:44.763Z,787.30
2019-05-23T00:32:44.773Z,787.30
2019-05-23T00:33:44.770Z,787.24
2019-05-23T00:34:44.758Z,787.21
2019-05-23T00:35:44.764Z,787.20
2019-05-23T00:36:44.757Z,787.18
2019-05-23T00:37:44.746Z,787.20
2019-05-23T00:38:44.701Z,787.22
2019-05-23T00:39:44.719Z,787.36
2019-05-23T00:40:44.680Z,787.48
2019-05-23T00:41:44.706Z,787.57
2019-05-23T00:42:44.674Z,787.72
2019-05-23T00:43:44.635Z,787.86
2019-05-23T00:44:44.622Z,787.96
2019-05-23T00:45:44.635Z,788.05
2019-05-23T00:46:44.615Z,788.14
2019-05-23T00:47:44.615Z,788.21
2019-05-23T00:48:44.603Z,788.25
2019-05-23T00:49:44.574Z,788.26
2019-05-23T00:50:44.549Z,788.27
2019-05-23T00:51:44.561Z,788.28
2019-05-23T00:52:44.594Z,788.35
2019-05-23T00:53:44.531Z,788.39
2019-05-23T00:54:44.517Z,788.41
2019-05-23T00:55:44.516Z,788.43
2019-05-23T00:56:44.512Z,788.41
2019-05-23T00:57:44.496Z,788.45
2019-05-23T00:58:44.515Z,788.46
2019-05-23T00:59:44.488Z,788.49
2019-05-23T01:00:44.449Z,788.52
2019-05-23T01:01:44.433Z,788.60
2019-05-23T01:03:53.660Z,788.77
2019-05-23T01:04:54.590Z,788.64
2019-05-23T01:05:54.590Z,788.64
2019-05-23T01:06:54.586Z,788.66
2019-05-23T01:07:54.570Z,788.68
2019-05-23T01:08:54.566Z,788.79
2019-05-23T01:09:54.541Z,788.90
2019-05-23T01:10:54.520Z,788.91
2019-05-23T01:11:54.521Z,788.86
2019-05-23T01:12:54.514Z,788.77
2019-05-23T01:13:54.527Z,788.76
2019-05-23T01:14:54.512Z,788.80
2019-05-23T01:15:54.483Z,788.85
2019-05-23T01:16:54.486Z,788.84
2019-05-23T01:17:54.457Z,788.85
2019-05-23T01:18:54.468Z,788.91
2019-05-23T01:19:54.431Z,788.85
2019-05-23T01:20:55.361Z,788.80
2019-05-23T01:21:54.421Z,788.82
2019-05-23T01:22:54.429Z,788.85
2019-05-23T01:23:54.415Z,788.90
2019-05-23T01:24:54.380Z,788.95
2019-05-23T01:25:54.365Z,788.96
2019-05-23T01:26:54.359Z,788.94
2019-05-23T01:27:54.340Z,788.90
2019-05-23T01:28:54.354Z,788.84
2019-05-23T01:29:54.337Z,788.83
2019-05-23T01:30:54.309Z,788.85
2019-05-23T01:31:54.303Z,788.86
2019-05-23T01:32:54.291Z,788.93
2019-05-23T01:33:54.316Z,788.99
2019-05-23T01:34:54.258Z,789.06
2019-05-23T01:35:54.270Z,789.13
2019-05-23T01:36:54.239Z,789.18
2019-05-23T01:37:54.239Z,789.18
2019-05-23T01:38:54.251Z,789.20
2019-05-23T01:39:54.205Z,789.12
2019-05-23T01:40:54.196Z,789.10
2019-05-23T01:41:54.199Z,789.09
2019-05-23T01:42:54.204Z,789.13
2019-05-23T01:43:54.183Z,789.24
2019-05-23T01:44:54.156Z,789.25
2019-05-23T01:45:54.152Z,789.24
2019-05-23T01:46:54.140Z,789.25
2019-05-23T01:47:54.146Z,789.25
2019-05-23T01:48:54.128Z,789.29
2019-05-23T01:49:54.117Z,789.30
2019-05-23T01:50:54.084Z,789.30
2019-05-23T01:51:54.097Z,789.29
2019-05-23T01:52:54.075Z,789.27
2019-05-23T01:53:54.062Z,789.33
2019-05-23T01:54:54.063Z,789.35
2019-05-23T01:55:54.056Z,789.30
2019-05-23T01:56:54.063Z,789.36
2019-05-23T01:57:54.005Z,789.49
2019-05-23T01:58:54.001Z,789.58
2019-05-23T02:00:08.073Z,789.60
2019-05-23T02:00:53.983Z,789.61
2019-05-23T02:01:53.971Z,789.63
2019-05-23T02:02:53.955Z,789.65
2019-05-23T02:03:53.973Z,789.70
2019-05-23T02:04:53.956Z,789.73
2019-05-23T02:05:53.922Z,789.68
2019-05-23T02:06:53.919Z,789.72
2019-05-23T02:07:53.901Z,789.75
2019-05-23T02:08:53.899Z,789.74
2019-05-23T02:09:53.906Z,789.77
2019-05-23T02:10:53.877Z,789.85
2019-05-23T02:11:53.857Z,789.82
2019-05-23T02:12:53.846Z,789.78
2019-05-23T02:13:53.835Z,789.83
2019-05-23T02:14:53.832Z,789.84
2019-05-23T02:15:53.808Z,789.86
2019-05-23T02:16:53.799Z,789.90
2019-05-23T02:17:53.828Z,789.96
2019-05-23T02:18:53.776Z,789.91
2019-05-23T02:19:53.795Z,789.87
2019-05-23T02:20:53.810Z,789.84
2019-05-23T02:21:53.742Z,789.81
2019-05-23T02:22:53.736Z,789.84
2019-05-23T02:23:53.722Z,789.91
2019-05-23T02:24:53.738Z,789.95
2019-05-23T02:25:53.713Z,790.01
2019-05-23T02:26:53.686Z,790.04
2019-05-23T02:27:53.687Z,790.03
2019-05-23T02:28:53.668Z,790.07
2019-05-23T02:29:53.677Z,790.07
2019-05-23T02:30:53.647Z,790.04
2019-05-23T02:31:53.632Z,790.04
2019-05-23T02:32:53.634Z,789.98
2019-05-23T02:33:53.612Z,789.89
2019-05-23T02:34:53.623Z,789.91
2019-05-23T02:35:53.617Z,789.86
2019-05-23T02:36:53.580Z,789.76
2019-05-23T02:37:53.559Z,789.69
2019-05-23T02:38:53.565Z,789.63
2019-05-23T02:39:53.560Z,789.62
2019-05-23T02:40:53.574Z,789.59
2019-05-23T02:41:53.549Z,789.67
2019-05-23T02:42:53.520Z,789.78
2019-05-23T02:43:53.512Z,789.86
2019-05-23T02:44:53.514Z,789.93
2019-05-23T02:45:53.505Z,790.02
2019-05-23T02:46:53.459Z,790.12
2019-05-23T02:47:53.449Z,790.17
2019-05-23T02:48:53.449Z,790.10
2019-05-23T02:49:53.434Z,790.05
2019-05-23T02:50:53.448Z,789.99
2019-05-23T02:51:53.423Z,789.92
2019-05-23T02:52:53.416Z,789.97
2019-05-23T02:53:53.391Z,789.99
2019-05-23T02:54:53.391Z,789.96
2019-05-23T02:55:53.396Z,789.96
2019-05-23T02:56:53.362Z,789.90
2019-05-23T02:57:53.358Z,789.72
2019-05-23T02:58:53.340Z,789.54
2019-05-23T02:59:53.335Z,789.50
2019-05-23T03:00:55.513Z,789.51
2019-05-23T03:01:53.317Z,789.56
2019-05-23T03:02:53.300Z,789.58
2019-05-23T03:05:02.498Z,789.89
2019-05-23T03:06:03.517Z,789.79
2019-05-23T03:07:03.484Z,789.81
2019-05-23T03:08:03.470Z,789.87
2019-05-23T03:09:03.456Z,789.87
2019-05-23T03:10:03.444Z,789.82
2019-05-23T03:11:03.455Z,789.66
2019-05-23T03:12:03.455Z,789.60
2019-05-23T03:13:03.418Z,789.57
2019-05-23T03:14:03.411Z,789.47
2019-05-23T03:15:03.402Z,789.32
2019-05-23T03:16:03.384Z,789.34
2019-05-23T03:17:03.381Z,789.37
2019-05-23T03:18:03.363Z,789.38
2019-05-23T03:19:03.350Z,789.31
2019-05-23T03:20:03.341Z,789.28
2019-05-23T03:21:03.331Z,789.18
2019-05-23T03:22:03.343Z,789.07
2019-05-23T03:23:03.311Z,789.01
2019-05-23T03:24:03.303Z,788.99
2019-05-23T03:25:03.296Z,788.99
2019-05-23T03:26:03.268Z,788.99
2019-05-23T03:27:03.284Z,789.01
2019-05-23T03:28:03.243Z,789.03
2019-05-23T03:29:03.238Z,789.01
2019-05-23T03:30:03.239Z,789.02
2019-05-23T03:31:27.482Z,789.09
2019-05-23T03:32:03.255Z,789.13
2019-05-23T03:33:03.202Z,789.18
2019-05-23T03:34:03.212Z,789.23
2019-05-23T03:35:03.174Z,789.26
2019-05-23T03:36:03.177Z,789.31
2019-05-23T03:37:03.179Z,789.38
2019-05-23T03:38:03.140Z,789.39
2019-05-23T03:39:03.149Z,789.51
2019-05-23T03:40:03.146Z,789.57
2019-05-23T03:41:03.121Z,789.61
2019-05-23T03:42:03.116Z,789.64
2019-05-23T03:43:03.123Z,789.68
2019-05-23T03:44:03.084Z,789.67
2019-05-23T03:45:03.096Z,789.64
2019-05-23T03:46:03.055Z,789.60
2019-05-23T03:47:03.043Z,789.59
2019-05-23T03:48:03.087Z,789.56
2019-05-23T03:49:03.028Z,789.56
2019-05-23T03:50:03.019Z,789.52
2019-05-23T03:51:02.995Z,789.53
2019-05-23T03:52:02.993Z,789.43
2019-05-23T03:53:02.995Z,789.36
2019-05-23T03:54:02.965Z,789.28
2019-05-23T03:55:02.958Z,789.21
2019-05-23T03:56:02.954Z,789.20
2019-05-23T03:57:02.937Z,789.18
2019-05-23T03:58:02.946Z,789.17
2019-05-23T03:59:02.917Z,789.16
2019-05-23T04:00:02.918Z,789.15
2019-05-23T04:01:02.886Z,789.15
2019-05-23T04:02:02.879Z,789.10
2019-05-23T04:03:02.916Z,789.08
2019-05-23T04:04:02.848Z,789.07
2019-05-23T04:05:02.865Z,789.07
2019-05-23T04:06:02.840Z,789.09
2019-05-23T04:07:02.832Z,789.09
2019-05-23T04:08:02.827Z,789.10
2019-05-23T04:09:02.809Z,789.09
2019-05-23T04:10:02.797Z,789.08
2019-05-23T04:11:02.824Z,789.08
2019-05-23T04:12:02.770Z,789.04
2019-05-23T04:13:02.780Z,789.08
2019-05-23T04:14:02.757Z,789.07
2019-05-23T04:15:02.751Z,789.07
2019-05-23T04:16:02.724Z,789.09
2019-05-23T04:17:02.722Z,789.08
2019-05-23T04:18:02.720Z,789.08
2019-05-23T04:19:02.696Z,789.05
2019-05-23T04:20:02.687Z,789.04
2019-05-23T04:21:02.677Z,789.01
2019-05-23T04:22:02.669Z,789.00
2019-05-23T04:23:02.676Z,788.97
2019-05-23T04:24:02.641Z,788.94
2019-05-23T04:25:02.877Z,788.93
2019-05-23T04:26:02.627Z,788.91
2019-05-23T04:27:02.632Z,788.91
2019-05-23T04:28:02.613Z,788.90
2019-05-23T04:29:02.594Z,788.88
2019-05-23T04:30:02.626Z,788.86
2019-05-23T04:31:02.554Z,788.82
2019-05-23T04:32:08.622Z,788.78
2019-05-23T04:33:02.565Z,788.74
2019-05-23T04:34:02.541Z,788.73
2019-05-23T04:35:02.510Z,788.66
2019-05-23T04:36:02.525Z,788.61
2019-05-23T04:37:03.227Z,788.53
2019-05-23T04:38:02.530Z,788.52
2019-05-23T04:39:02.482Z,788.47
2019-05-23T04:40:02.534Z,788.41
2019-05-23T04:41:02.451Z,788.38
2019-05-23T04:42:02.467Z,788.31
2019-05-23T04:43:02.460Z,788.28
2019-05-23T04:44:02.425Z,788.11
2019-05-23T04:45:02.409Z,787.88
2019-05-23T04:46:02.418Z,787.56
2019-05-23T04:47:02.402Z,787.43
2019-05-23T04:48:02.401Z,787.30
2019-05-23T04:49:02.386Z,787.20
2019-05-23T04:50:02.362Z,787.16
2019-05-23T04:51:02.367Z,787.13
2019-05-23T04:52:02.339Z,787.12
2019-05-23T04:53:02.327Z,787.05
2019-05-23T04:54:02.334Z,786.91
2019-05-23T04:55:02.292Z,786.85
2019-05-23T04:56:02.287Z,786.88
2019-05-23T04:57:02.277Z,786.93
2019-05-23T04:58:04.491Z,786.90
2019-05-23T04:59:02.276Z,786.89
2019-05-23T05:00:02.277Z,786.95
2019-05-23T05:01:02.237Z,787.03
2019-05-23T05:02:02.224Z,786.88
2019-05-23T05:03:02.211Z,786.71
2019-05-23T05:04:02.211Z,786.66
2019-05-23T05:06:11.383Z,786.83
2019-05-23T05:07:12.369Z,786.73
2019-05-23T05:08:12.570Z,786.73
2019-05-23T05:09:12.372Z,786.65
2019-05-23T05:10:12.330Z,786.37
2019-05-23T05:11:12.354Z,786.19
2019-05-23T05:12:12.321Z,785.96
2019-05-23T05:13:12.307Z,785.75
2019-05-23T05:14:12.317Z,785.70
2019-05-23T05:15:12.296Z,785.62
2019-05-23T05:16:12.278Z,785.52
2019-05-23T05:17:12.270Z,785.63
2019-05-23T05:18:12.244Z,785.68
2019-05-23T05:19:12.272Z,785.80
2019-05-23T05:20:12.230Z,785.80
2019-05-23T05:21:12.231Z,785.70
2019-05-23T05:22:12.219Z,785.66
2019-05-23T05:23:12.205Z,785.56
2019-05-23T05:24:12.200Z,785.42
2019-05-23T05:25:13.433Z,785.16
2019-05-23T05:26:12.164Z,784.88
2019-05-23T05:27:12.156Z,784.70
2019-05-23T05:28:12.209Z,784.76
2019-05-23T05:29:12.175Z,784.74
2019-05-23T05:30:12.129Z,784.77
2019-05-23T05:31:12.222Z,784.75
2019-05-23T05:32:12.093Z,784.73
2019-05-23T05:33:12.091Z,784.72
2019-05-23T05:34:12.108Z,784.75
2019-05-23T05:35:12.078Z,784.78
2019-05-23T05:36:12.061Z,784.76
2019-05-23T05:37:12.048Z,784.67
2019-05-23T05:38:12.036Z,784.66
2019-05-23T05:39:12.039Z,784.67
2019-05-23T05:40:12.009Z,784.75
2019-05-23T05:41:11.996Z,784.79
2019-05-23T05:42:11.983Z,784.72
2019-05-23T05:43:11.980Z,784.79
2019-05-23T05:44:12.137Z,784.81
2019-05-23T05:45:12.001Z,784.75
2019-05-23T05:46:11.972Z,784.68
2019-05-23T05:47:11.934Z,784.60
2019-05-23T05:48:14.654Z,784.56
2019-05-23T05:49:11.924Z,784.49
2019-05-23T05:50:11.924Z,784.44
2019-05-23T05:51:11.889Z,784.42
2019-05-23T05:52:11.879Z,784.35
2019-05-23T05:53:11.888Z,784.27
2019-05-23T05:54:11.915Z,784.25
2019-05-23T05:55:11.868Z,784.18
2019-05-23T05:56:11.886Z,784.20
2019-05-23T05:57:11.831Z,784.11
2019-05-23T05:58:11.806Z,784.14
2019-05-23T05:59:11.814Z,784.17
2019-05-23T06:00:13.214Z,784.13
2019-05-23T06:01:11.900Z,784.04
2019-05-23T06:02:11.762Z,783.97
2019-05-23T06:03:11.879Z,784.04
2019-05-23T06:04:11.867Z,784.10
2019-05-23T06:05:11.790Z,784.00
2019-05-23T06:06:11.716Z,783.89
2019-05-23T06:07:11.754Z,783.77
2019-05-23T06:08:12.092Z,783.81
2019-05-23T06:09:11.711Z,783.73
2019-05-23T06:10:11.699Z,783.64
2019-05-23T06:11:11.664Z,783.54
2019-05-23T06:12:11.668Z,783.49
2019-05-23T06:13:11.675Z,783.37
2019-05-23T06:14:11.636Z,783.23
2019-05-23T06:15:11.730Z,783.14
2019-05-23T06:16:12.194Z,783.16
2019-05-23T06:18:21.057Z,783.24
2019-05-23T06:19:21.281Z,783.02
2019-05-23T06:20:21.289Z,782.95
2019-05-23T06:21:21.282Z,782.94
2019-05-23T06:22:21.262Z,783.09
2019-05-23T06:23:21.347Z,783.05
2019-05-23T06:24:39.475Z,782.91
2019-05-23T06:25:21.305Z,782.75
2019-05-23T06:26:21.219Z,782.56
2019-05-23T06:27:21.194Z,782.43
2019-05-23T06:28:21.236Z,782.26
2019-05-23T06:29:21.190Z,782.22
2019-05-23T06:30:21.251Z,782.29
2019-05-23T06:31:21.168Z,782.37
2019-05-23T06:32:21.126Z,782.43
2019-05-23T06:33:23.664Z,782.45
2019-05-23T06:34:21.128Z,782.30
2019-05-23T06:35:21.140Z,782.16
2019-05-23T06:36:21.685Z,781.99
2019-05-23T06:37:21.273Z,781.85
2019-05-23T06:38:21.086Z,781.69
2019-05-23T06:39:21.088Z,781.58
2019-05-23T06:40:21.097Z,781.67
2019-05-23T06:41:21.046Z,781.75
2019-05-23T06:42:21.058Z,781.68
2019-05-23T06:43:21.026Z,781.63
2019-05-23T06:44:21.006Z,781.68
2019-05-23T06:45:21.362Z,781.75
2019-05-23T06:46:21.030Z,781.65
2019-05-23T06:47:21.519Z,781.55
2019-05-23T06:48:20.962Z,781.56
2019-05-23T06:49:20.952Z,781.54
2019-05-23T06:50:20.943Z,781.57
2019-05-23T06:51:20.944Z,781.67
2019-05-23T06:52:20.945Z,781.59
2019-05-23T06:53:20.916Z,781.62
2019-05-23T06:54:20.885Z,781.50
2019-05-23T06:55:20.906Z,781.40
2019-05-23T06:56:20.942Z,781.33
2019-05-23T06:57:20.903Z,781.23
2019-05-23T06:58:21.197Z,781.17
2019-05-23T06:59:20.878Z,781.21
2019-05-23T07:00:20.835Z,781.17
2019-05-23T07:01:20.837Z,781.01
2019-05-23T07:02:20.878Z,780.86
2019-05-23T07:03:20.784Z,780.98
2019-05-23T07:04:20.798Z,780.84
2019-05-23T07:05:20.781Z,780.63
2019-05-23T07:06:20.824Z,780.53
2019-05-23T07:07:20.748Z,780.47
2019-05-23T07:08:20.753Z,780.30
2019-05-23T07:09:20.755Z,780.33
2019-05-23T07:10:20.715Z,780.58
2019-05-23T07:11:20.733Z,780.56
2019-05-23T07:12:20.697Z,780.58
2019-05-23T07:13:20.679Z,780.44
2019-05-23T07:14:20.692Z,780.39
2019-05-23T07:15:20.666Z,780.21
2019-05-23T07:16:20.700Z,780.16
2019-05-23T07:17:20.640Z,779.97
2019-05-23T07:18:20.658Z,779.78
2019-05-23T07:19:20.613Z,779.68
2019-05-23T07:20:20.606Z,779.49
2019-05-23T07:21:20.613Z,779.36
2019-05-23T07:22:20.599Z,779.08
2019-05-23T07:23:20.572Z,779.05
2019-05-23T07:24:21.530Z,779.01
2019-05-23T07:25:20.586Z,778.89
2019-05-23T07:26:20.550Z,778.78
2019-05-23T07:27:20.558Z,778.71
2019-05-23T07:28:20.522Z,778.57
2019-05-23T07:29:20.514Z,778.54
2019-05-23T07:30:20.506Z,778.49
2019-05-23T07:31:20.497Z,778.44
2019-05-23T07:32:20.479Z,778.36
2019-05-23T07:33:20.483Z,778.34
2019-05-23T07:34:20.511Z,778.40
2019-05-23T07:35:22.163Z,778.35
2019-05-23T07:36:20.459Z,778.20
2019-05-23T07:37:20.501Z,777.94
2019-05-23T07:38:20.444Z,777.74
2019-05-23T07:39:20.566Z,777.82
2019-05-23T07:40:20.526Z,777.89
2019-05-23T07:41:20.376Z,777.80
2019-05-23T07:42:20.444Z,777.67
2019-05-23T07:43:20.383Z,777.53
2019-05-23T07:44:20.390Z,777.57
2019-05-23T07:45:20.360Z,777.54
2019-05-23T07:46:20.395Z,777.94
2019-05-23T07:47:20.326Z,778.00
2019-05-23T07:48:20.386Z,778.18
2019-05-23T07:49:20.289Z,778.12
2019-05-23T07:50:20.278Z,777.96
2019-05-23T07:51:20.268Z,777.99
2019-05-23T07:52:20.304Z,777.91
2019-05-23T07:53:20.246Z,777.89
2019-05-23T07:54:20.284Z,777.82
2019-05-23T07:55:20.238Z,777.64
2019-05-23T07:56:20.243Z,777.43
2019-05-23T07:57:20.224Z,777.36
2019-05-23T07:58:20.196Z,777.17
2019-05-23T07:59:20.452Z,776.98
2019-05-23T08:00:20.202Z,776.85
2019-05-23T08:01:20.179Z,776.76
2019-05-23T08:02:24.578Z,776.86
2019-05-23T08:03:21.111Z,776.78
2019-05-23T08:04:22.247Z,776.81
2019-05-23T08:05:20.323Z,776.97
2019-05-23T08:06:20.179Z,777.03
2019-05-23T08:07:20.166Z,776.99
2019-05-23T08:08:20.103Z,776.89
2019-05-23T08:09:20.088Z,776.91
2019-05-23T08:10:33.275Z,776.84
2019-05-23T08:11:20.051Z,776.89
2019-05-23T08:12:20.078Z,776.87
2019-05-23T08:13:20.044Z,776.61
2019-05-23T08:14:20.108Z,776.29
2019-05-23T08:15:20.013Z,776.07
2019-05-23T08:16:20.035Z,775.94
2019-05-23T08:17:20.507Z,775.86
2019-05-23T08:19:49.145Z,776.36
2019-05-23T08:20:39.757Z,776.38
2019-05-23T08:21:40.030Z,776.22
2019-05-23T08:22:39.759Z,776.05
2019-05-23T08:23:39.910Z,776.02
2019-05-23T08:24:39.676Z,775.87
2019-05-23T08:25:39.965Z,775.79
2019-05-23T08:26:39.782Z,775.56
2019-05-23T08:27:39.735Z,775.46
2019-05-23T08:28:56.683Z,775.29
2019-05-23T08:29:39.934Z,775.12
2019-05-23T08:30:40.061Z,775.12
2019-05-23T08:31:39.664Z,775.25
2019-05-23T08:32:39.668Z,775.14
2019-05-23T08:33:39.591Z,775.35
2019-05-23T08:34:42.162Z,775.76
2019-05-23T08:35:39.567Z,775.88
2019-05-23T08:36:39.555Z,775.70
2019-05-23T08:37:39.707Z,775.46
2019-05-23T08:38:39.552Z,775.29
2019-05-23T08:39:39.511Z,775.15
2019-05-23T08:40:39.509Z,774.94
2019-05-23T08:41:39.529Z,774.68
2019-05-23T08:42:39.536Z,774.44
2019-05-23T08:43:39.490Z,774.32
2019-05-23T08:44:39.490Z,774.81
2019-05-23T08:45:39.470Z,775.02
2019-05-23T08:46:39.444Z,775.23
2019-05-23T08:47:39.443Z,775.07
2019-05-23T08:48:39.445Z,775.02
2019-05-23T08:49:39.410Z,774.79
2019-05-23T08:50:39.402Z,774.95
2019-05-23T08:51:39.425Z,775.15
2019-05-23T08:52:39.388Z,775.06
2019-05-23T08:53:40.021Z,775.28
2019-05-23T08:54:39.638Z,775.33
2019-05-23T08:55:39.443Z,775.24
2019-05-23T08:56:39.655Z,775.07
2019-05-23T08:57:39.325Z,774.82
2019-05-23T08:58:39.345Z,774.70
2019-05-23T08:59:39.322Z,774.42
2019-05-23T09:00:39.394Z,774.40
2019-05-23T09:01:39.282Z,774.66
2019-05-23T09:02:39.271Z,774.55
2019-05-23T09:03:39.311Z,774.99
2019-05-23T09:04:39.247Z,775.08
2019-05-23T09:05:39.320Z,774.88
2019-05-23T09:06:39.250Z,775.14
2019-05-23T09:07:39.242Z,775.00
2019-05-23T09:08:39.278Z,774.98
2019-05-23T09:09:39.194Z,774.73
2019-05-23T09:10:39.196Z,774.63
2019-05-23T09:11:39.169Z,774.53
2019-05-23T09:12:39.228Z,774.58
2019-05-23T09:13:39.192Z,774.40
2019-05-23T09:14:39.298Z,774.16
2019-05-23T09:15:39.131Z,774.04
2019-05-23T09:16:39.158Z,773.70
2019-05-23T09:17:52.406Z,773.34
2019-05-23T09:18:39.155Z,773.38
2019-05-23T09:19:39.070Z,773.45
2019-05-23T09:20:39.106Z,773.61
2019-05-23T09:21:39.430Z,773.44
2019-05-23T09:22:39.104Z,773.29
2019-05-23T09:23:39.220Z,773.04
2019-05-23T09:24:39.080Z,773.07
2019-05-23T09:25:39.057Z,773.22
2019-05-23T09:26:39.026Z,773.27
2019-05-23T09:27:39.008Z,773.10
2019-05-23T09:28:39.091Z,772.92
2019-05-23T09:29:38.969Z,772.90
2019-05-23T09:30:38.992Z,772.71
2019-05-23T09:31:39.076Z,772.49
2019-05-23T09:32:39.002Z,772.42
2019-05-23T09:33:38.990Z,772.39
2019-05-23T09:34:38.932Z,772.36
2019-05-23T09:35:39.369Z,772.21
2019-05-23T09:36:38.901Z,772.08
2019-05-23T09:37:38.902Z,772.06
2019-05-23T09:38:38.965Z,772.64
2019-05-23T09:39:38.857Z,773.18
2019-05-23T09:40:38.985Z,773.22
2019-05-23T09:41:38.888Z,773.25
2019-05-23T09:42:38.847Z,773.51
2019-05-23T09:43:38.827Z,773.74
2019-05-23T09:44:38.829Z,773.30
2019-05-23T09:45:38.811Z,772.90
2019-05-23T09:46:38.826Z,772.80
2019-05-23T09:47:38.816Z,772.90
2019-05-23T09:48:38.785Z,772.55
2019-05-23T09:49:38.828Z,772.40
2019-05-23T09:50:39.749Z,772.12
2019-05-23T09:51:38.833Z,771.81
2019-05-23T09:52:38.744Z,771.75
2019-05-23T09:53:38.734Z,771.78
2019-05-23T09:54:38.805Z,771.87
2019-05-23T09:55:38.687Z,771.95
2019-05-23T09:56:38.728Z,772.46
2019-05-23T09:57:38.664Z,772.80
2019-05-23T09:58:38.826Z,772.87
2019-05-23T09:59:38.694Z,772.85
2019-05-23T10:00:38.663Z,772.99
2019-05-23T10:01:38.747Z,773.31
2019-05-23T10:02:38.626Z,773.39
2019-05-23T10:03:38.661Z,773.24
2019-05-23T10:04:38.735Z,773.00
2019-05-23T10:05:43.302Z,772.75
2019-05-23T10:06:38.641Z,772.42
2019-05-23T10:07:38.629Z,772.28
2019-05-23T10:08:38.695Z,772.02
2019-05-23T10:09:38.724Z,772.05
2019-05-23T10:10:38.540Z,772.36
2019-05-23T10:11:38.525Z,772.62
2019-05-23T10:12:38.519Z,772.45
2019-05-23T10:13:39.684Z,772.11
2019-05-23T10:14:38.562Z,771.80
2019-05-23T10:15:38.494Z,771.51
2019-05-23T10:16:38.535Z,771.27
2019-05-23T10:17:38.465Z,771.09
2019-05-23T10:18:38.646Z,771.00
2019-05-23T10:20:47.632Z,771.34
2019-05-23T10:21:48.608Z,771.62
2019-05-23T10:22:48.662Z,771.81
2019-05-23T10:23:48.587Z,772.20
2019-05-23T10:24:48.601Z,772.65
2019-05-23T10:25:48.567Z,772.62
2019-05-23T10:26:48.576Z,772.67
2019-05-23T10:27:48.546Z,772.99
2019-05-23T10:28:48.551Z,772.99
2019-05-23T10:29:48.565Z,772.48
2019-05-23T10:30:48.508Z,772.53
2019-05-23T10:31:48.494Z,772.67
2019-05-23T10:32:48.491Z,772.37
2019-05-23T10:33:48.709Z,772.23
2019-05-23T10:34:48.498Z,772.18
2019-05-23T10:35:59.913Z,771.88
2019-05-23T10:36:48.435Z,771.67
2019-05-23T10:37:48.434Z,771.53
2019-05-23T10:38:48.427Z,772.25
2019-05-23T10:39:48.907Z,772.41
2019-05-23T10:40:48.432Z,772.20
2019-05-23T10:41:48.405Z,772.10
2019-05-23T10:42:48.380Z,772.23
2019-05-23T10:43:48.395Z,772.15
2019-05-23T10:44:48.388Z,772.24
2019-05-23T10:45:48.355Z,772.21
2019-05-23T10:46:48.345Z,772.57
2019-05-23T10:47:48.353Z,773.09
2019-05-23T10:48:48.326Z,772.99
2019-05-23T10:49:48.313Z,772.56
2019-05-23T10:50:48.321Z,772.56
2019-05-23T10:51:48.297Z,772.62
2019-05-23T10:52:48.295Z,772.83
2019-05-23T10:53:48.259Z,772.95
2019-05-23T10:54:48.311Z,772.85
2019-05-23T10:55:48.264Z,772.66
2019-05-23T10:56:48.368Z,772.26
2019-05-23T10:57:48.237Z,772.33
2019-05-23T10:58:48.223Z,771.91
2019-05-23T10:59:48.201Z,771.53
2019-05-23T11:00:48.201Z,771.34
2019-05-23T11:01:48.205Z,771.62
2019-05-23T11:02:48.167Z,771.38
2019-05-23T11:03:48.163Z,771.08
2019-05-23T11:04:48.166Z,771.27
2019-05-23T11:05:48.170Z,771.46
2019-05-23T11:06:48.115Z,771.34
2019-05-23T11:07:48.139Z,771.32
2019-05-23T11:08:48.099Z,771.51
2019-05-23T11:09:48.087Z,771.28
2019-05-23T11:10:48.114Z,771.17
2019-05-23T11:11:48.070Z,771.58
2019-05-23T11:12:48.064Z,771.97
2019-05-23T11:13:48.048Z,772.03
2019-05-23T11:14:48.033Z,772.03
2019-05-23T11:15:48.917Z,771.85
2019-05-23T11:16:48.039Z,771.21
2019-05-23T11:17:48.030Z,770.67
2019-05-23T11:18:47.987Z,770.28
2019-05-23T11:19:48.008Z,770.42
2019-05-23T11:20:47.983Z,770.56
2019-05-23T11:21:48.138Z,770.78
2019-05-23T11:22:47.954Z,771.06
2019-05-23T11:23:47.942Z,771.23
2019-05-23T11:24:47.930Z,771.27
2019-05-23T11:25:47.943Z,771.48
2019-05-23T11:26:47.904Z,771.68
2019-05-23T11:27:47.912Z,771.49
2019-05-23T11:28:47.890Z,771.38
2019-05-23T11:29:47.881Z,771.66
2019-05-23T11:30:47.886Z,771.51
2019-05-23T11:31:47.856Z,771.37
2019-05-23T11:32:47.838Z,771.62
2019-05-23T11:33:47.836Z,771.49
2019-05-23T11:34:47.833Z,771.71
2019-05-23T11:35:47.853Z,771.82
2019-05-23T11:36:47.803Z,771.86
2019-05-23T11:37:47.786Z,771.88
2019-05-23T11:38:47.768Z,771.86
2019-05-23T11:39:50.143Z,771.88
2019-05-23T11:40:47.772Z,771.79
2019-05-23T11:41:47.744Z,771.68
2019-05-23T11:42:47.729Z,771.30
2019-05-23T11:43:47.726Z,771.72
2019-05-23T11:44:47.712Z,771.69
2019-05-23T11:45:47.725Z,771.42
2019-05-23T11:46:47.709Z,771.31
2019-05-23T11:47:47.686Z,771.16
2019-05-23T11:48:47.879Z,770.62
2019-05-23T11:49:48.918Z,770.45
2019-05-23T11:50:47.737Z,770.05
2019-05-23T11:51:47.662Z,769.72
2019-05-23T11:52:47.626Z,769.34
2019-05-23T11:54:05.930Z,769.78
2019-05-23T11:54:47.610Z,770.23
2019-05-23T11:55:47.623Z,770.60
2019-05-23T11:56:47.618Z,771.06
2019-05-23T11:57:47.581Z,771.07
2019-05-23T11:58:47.591Z,770.99
2019-05-23T11:59:47.580Z,770.85
2019-05-23T12:00:47.610Z,770.77
2019-05-23T12:01:47.717Z,770.42
2019-05-23T12:02:47.510Z,770.43
2019-05-23T12:03:47.509Z,770.51
2019-05-23T12:04:47.516Z,770.44
2019-05-23T12:05:47.503Z,770.26
2019-05-23T12:06:55.285Z,770.10
2019-05-23T12:07:47.456Z,770.86
2019-05-23T12:08:47.449Z,770.85
2019-05-23T12:09:47.443Z,770.87
2019-05-23T12:10:47.449Z,771.17
2019-05-23T12:11:47.421Z,771.20
2019-05-23T12:12:47.406Z,771.47
2019-05-23T12:13:47.392Z,771.59
2019-05-23T12:14:47.400Z,771.11
2019-05-23T12:15:47.376Z,770.72
2019-05-23T12:16:47.451Z,770.32
2019-05-23T12:17:47.348Z,770.16
2019-05-23T12:18:47.347Z,770.68
2019-05-23T12:19:47.325Z,770.88
2019-05-23T12:21:56.586Z,771.66
2019-05-23T12:22:57.500Z,771.60
2019-05-23T12:23:57.469Z,771.49
2019-05-23T12:24:57.464Z,771.18
2019-05-23T12:25:57.446Z,770.78
2019-05-23T12:26:57.510Z,770.57
2019-05-23T12:27:57.427Z,770.60
2019-05-23T12:28:57.419Z,770.86
2019-05-23T12:29:57.417Z,771.10
2019-05-23T12:30:57.395Z,770.86
2019-05-23T12:31:57.429Z,770.66
2019-05-23T12:32:57.387Z,770.60
2019-05-23T12:33:57.374Z,770.56
2019-05-23T12:35:10.301Z,770.23
2019-05-23T12:35:57.359Z,770.26
2019-05-23T12:37:16.845Z,770.11